sensor_id;sensor_type;location;lat;lon;timestamp;pressure;altitude;pressure_sealevel;temperature
12234;BMP180;6179;51.748;8.728;2024-01-27T00:05:30;108415.00;;;222.90
12234;BMP180;6179;51.748;8.728;2024-01-27T00:11:32;108413.00;;;222.90
12234;BMP180;6179;51.748;8.728;2024-01-27T00:17:32;108412.00;;;222.90
12234;BMP180;6179;51.748;8.728;2024-01-27T00:23:34;108411.00;;;222.90
12234;BMP180;6179;51.748;8.728;2024-01-27T00:29:35;230388.00;;;222.90
12234;BMP180;6179;51.748;8.728;2024-01-27T00:35:36;108413.00;;;222.90
12234;BMP180;6179;51.748;8.728;2024-01-27T00:41:37;108418.00;;;222.90
12234;BMP180;6179;51.748;8.728;2024-01-27T00:47:37;108414.00;;;222.90
12234;BMP180;6179;51.748;8.728;2024-01-27T00:53:38;108418.00;;;222.90
12234;BMP180;6179;51.748;8.728;2024-01-27T00:59:39;108390.00;;;222.90
12234;BMP180;6179;51.748;8.728;2024-01-27T01:05:40;108413.00;;;222.90
12234;BMP180;6179;51.748;8.728;2024-01-27T01:11:41;108411.00;;;222.90
12234;BMP180;6179;51.748;8.728;2024-01-27T01:17:42;108416.00;;;222.90
12234;BMP180;6179;51.748;8.728;2024-01-27T01:23:43;108413.00;;;222.90
12234;BMP180;6179;51.748;8.728;2024-01-27T01:29:43;108412.00;;;222.90
12234;BMP180;6179;51.748;8.728;2024-01-27T01:35:44;108418.00;;;222.90
12234;BMP180;6179;51.748;8.728;2024-01-27T01:41:46;108416.00;;;222.90
12234;BMP180;6179;51.748;8.728;2024-01-27T01:47:47;108415.00;;;222.90
12234;BMP180;6179;51.748;8.728;2024-01-27T01:53:49;108418.00;;;222.90
12234;BMP180;6179;51.748;8.728;2024-01-27T01:59:50;108414.00;;;222.90
12234;BMP180;6179;51.748;8.728;2024-01-27T02:05:50;108412.00;;;222.90
12234;BMP180;6179;51.748;8.728;2024-01-27T02:11:52;230388.00;;;222.90
12234;BMP180;6179;51.748;8.728;2024-01-27T02:17:52;108411.00;;;222.90
12234;BMP180;6179;51.748;8.728;2024-01-27T02:23:53;108419.00;;;222.90
12234;BMP180;6179;51.748;8.728;2024-01-27T02:29:54;108414.00;;;222.90
12234;BMP180;6179;51.748;8.728;2024-01-27T02:35:55;108414.00;;;222.90
12234;BMP180;6179;51.748;8.728;2024-01-27T02:41:56;52867.00;;;222.90
12234;BMP180;6179;51.748;8.728;2024-01-27T02:47:56;267399.00;;;222.90
12234;BMP180;6179;51.748;8.728;2024-01-27T02:53:57;108415.00;;;222.90
12234;BMP180;6179;51.748;8.728;2024-01-27T02:59:58;108412.00;;;222.90
12234;BMP180;6179;51.748;8.728;2024-01-27T03:05:59;108412.00;;;222.90
12234;BMP180;6179;51.748;8.728;2024-01-27T03:11:59;108415.00;;;222.90
12234;BMP180;6179;51.748;8.728;2024-01-27T03:18:00;108414.00;;;222.90
12234;BMP180;6179;51.748;8.728;2024-01-27T03:24:01;108414.00;;;222.90
12234;BMP180;6179;51.748;8.728;2024-01-27T03:30:03;108413.00;;;222.90
12234;BMP180;6179;51.748;8.728;2024-01-27T03:36:10;108414.00;;;222.90
12234;BMP180;6179;51.748;8.728;2024-01-27T03:42:11;108415.00;;;222.90
12234;BMP180;6179;51.748;8.728;2024-01-27T03:48:12;108415.00;;;222.90
12234;BMP180;6179;51.748;8.728;2024-01-27T03:54:13;108416.00;;;222.90
12234;BMP180;6179;51.748;8.728;2024-01-27T04:00:14;108413.00;;;222.90
12234;BMP180;6179;51.748;8.728;2024-01-27T04:06:15;108416.00;;;222.90
12234;BMP180;6179;51.748;8.728;2024-01-27T04:12:16;108413.00;;;222.90
12234;BMP180;6179;51.748;8.728;2024-01-27T04:18:16;108416.00;;;222.90
12234;BMP180;6179;51.748;8.728;2024-01-27T04:24:17;108408.00;;;222.90
12234;BMP180;6179;51.748;8.728;2024-01-27T04:30:18;108416.00;;;222.90
12234;BMP180;6179;51.748;8.728;2024-01-27T04:36:29;108410.00;;;222.90
12234;BMP180;6179;51.748;8.728;2024-01-27T04:42:30;108413.00;;;222.90
12234;BMP180;6179;51.748;8.728;2024-01-27T04:48:31;108416.00;;;222.90
12234;BMP180;6179;51.748;8.728;2024-01-27T04:54:31;98218.00;;;222.90
12234;BMP180;6179;51.748;8.728;2024-01-27T05:00:32;108416.00;;;222.90
12234;BMP180;6179;51.748;8.728;2024-01-27T05:06:33;108414.00;;;222.90
12234;BMP180;6179;51.748;8.728;2024-01-27T05:12:34;108416.00;;;222.90
12234;BMP180;6179;51.748;8.728;2024-01-27T05:18:35;108412.00;;;222.90
12234;BMP180;6179;51.748;8.728;2024-01-27T05:24:35;108408.00;;;222.90
12234;BMP180;6179;51.748;8.728;2024-01-27T05:30:36;108409.00;;;222.90
12234;BMP180;6179;51.748;8.728;2024-01-27T05:36:37;71102.00;;;222.90
12234;BMP180;6179;51.748;8.728;2024-01-27T05:42:37;108420.00;;;222.90
12234;BMP180;6179;51.748;8.728;2024-01-27T05:48:40;108408.00;;;222.90
12234;BMP180;6179;51.748;8.728;2024-01-27T05:54:41;108409.00;;;222.90
12234;BMP180;6179;51.748;8.728;2024-01-27T06:00:45;108414.00;;;222.90
12234;BMP180;6179;51.748;8.728;2024-01-27T06:06:46;108412.00;;;222.90
12234;BMP180;6179;51.748;8.728;2024-01-27T06:12:47;108410.00;;;222.90
12234;BMP180;6179;51.748;8.728;2024-01-27T06:18:48;108407.00;;;222.90
12234;BMP180;6179;51.748;8.728;2024-01-27T06:24:49;108417.00;;;222.90
12234;BMP180;6179;51.748;8.728;2024-01-27T06:30:50;108406.00;;;222.90
12234;BMP180;6179;51.748;8.728;2024-01-27T06:36:50;108411.00;;;222.90
12234;BMP180;6179;51.748;8.728;2024-01-27T06:42:51;108414.00;;;222.90
12234;BMP180;6179;51.748;8.728;2024-01-27T06:48:52;108414.00;;;222.90
12234;BMP180;6179;51.748;8.728;2024-01-27T06:54:54;108416.00;;;222.90
12234;BMP180;6179;51.748;8.728;2024-01-27T07:00:55;108413.00;;;222.90
12234;BMP180;6179;51.748;8.728;2024-01-27T07:06:55;108413.00;;;222.90
12234;BMP180;6179;51.748;8.728;2024-01-27T07:12:56;108413.00;;;222.90
12234;BMP180;6179;51.748;8.728;2024-01-27T07:18:57;108412.00;;;222.90
12234;BMP180;6179;51.748;8.728;2024-01-27T07:24:58;108414.00;;;222.90
12234;BMP180;6179;51.748;8.728;2024-01-27T07:30:58;108414.00;;;222.90
12234;BMP180;6179;51.748;8.728;2024-01-27T07:36:59;108420.00;;;222.90
12234;BMP180;6179;51.748;8.728;2024-01-27T07:43:00;108412.00;;;222.90
12234;BMP180;6179;51.748;8.728;2024-01-27T07:49:01;108415.00;;;222.90
12234;BMP180;6179;51.748;8.728;2024-01-27T07:55:04;108409.00;;;222.90
12234;BMP180;6179;51.748;8.728;2024-01-27T08:01:04;108416.00;;;222.90
12234;BMP180;6179;51.748;8.728;2024-01-27T08:07:05;108407.00;;;222.90
12234;BMP180;6179;51.748;8.728;2024-01-27T08:13:10;108415.00;;;222.90
12234;BMP180;6179;51.748;8.728;2024-01-27T08:19:10;108412.00;;;222.90
12234;BMP180;6179;51.748;8.728;2024-01-27T08:25:11;108416.00;;;222.90
12234;BMP180;6179;51.748;8.728;2024-01-27T08:31:12;108411.00;;;222.90
12234;BMP180;6179;51.748;8.728;2024-01-27T08:37:19;108412.00;;;222.90
12234;BMP180;6179;51.748;8.728;2024-01-27T08:43:20;108418.00;;;222.90
12234;BMP180;6179;51.748;8.728;2024-01-27T08:49:20;108412.00;;;222.90
12234;BMP180;6179;51.748;8.728;2024-01-27T08:55:21;108412.00;;;222.90
12234;BMP180;6179;51.748;8.728;2024-01-27T09:01:24;108415.00;;;222.90
12234;BMP180;6179;51.748;8.728;2024-01-27T09:07:25;108416.00;;;222.90
12234;BMP180;6179;51.748;8.728;2024-01-27T09:13:25;108413.00;;;222.90
12234;BMP180;6179;51.748;8.728;2024-01-27T09:19:27;98222.00;;;222.90
12234;BMP180;6179;51.748;8.728;2024-01-27T09:25:28;108415.00;;;222.90
12234;BMP180;6179;51.748;8.728;2024-01-27T09:31:30;108413.00;;;222.90
12234;BMP180;6179;51.748;8.728;2024-01-27T09:37:31;230388.00;;;222.90
12234;BMP180;6179;51.748;8.728;2024-01-27T09:43:35;230388.00;;;222.90
12234;BMP180;6179;51.748;8.728;2024-01-27T09:49:40;230388.00;;;222.90
12234;BMP180;6179;51.748;8.728;2024-01-27T09:55:43;134419.00;;;222.90
12234;BMP180;6179;51.748;8.728;2024-01-27T10:01:45;230388.00;;;222.90
12234;BMP180;6179;51.748;8.728;2024-01-27T10:07:47;230388.00;;;222.90
12234;BMP180;6179;51.748;8.728;2024-01-27T10:13:58;108413.00;;;222.90
12234;BMP180;6179;51.748;8.728;2024-01-27T10:20:04;129084.00;;;222.90
12234;BMP180;6179;51.748;8.728;2024-01-27T10:26:08;230388.00;;;222.90
12234;BMP180;6179;51.748;8.728;2024-01-27T10:32:09;230384.00;;;222.90
12234;BMP180;6179;51.748;8.728;2024-01-27T10:38:10;108420.00;;;222.90
12234;BMP180;6179;51.748;8.728;2024-01-27T10:44:15;108421.00;;;222.90
12234;BMP180;6179;51.748;8.728;2024-01-27T10:50:17;108414.00;;;222.90
12234;BMP180;6179;51.748;8.728;2024-01-27T10:56:19;108413.00;;;222.90
12234;BMP180;6179;51.748;8.728;2024-01-27T11:02:21;108422.00;;;222.90
12234;BMP180;6179;51.748;8.728;2024-01-27T11:08:25;230388.00;;;222.90
12234;BMP180;6179;51.748;8.728;2024-01-27T11:14:28;108419.00;;;222.90
12234;BMP180;6179;51.748;8.728;2024-01-27T11:20:31;230388.00;;;222.90
12234;BMP180;6179;51.748;8.728;2024-01-27T11:26:32;230388.00;;;222.90
12234;BMP180;6179;51.748;8.728;2024-01-27T11:32:33;230388.00;;;222.90
12234;BMP180;6179;51.748;8.728;2024-01-27T11:38:34;230388.00;;;222.90
12234;BMP180;6179;51.748;8.728;2024-01-27T11:44:36;230388.00;;;222.90
12234;BMP180;6179;51.748;8.728;2024-01-27T11:50:37;230388.00;;;222.90
12234;BMP180;6179;51.748;8.728;2024-01-27T11:56:38;230388.00;;;222.90
12234;BMP180;6179;51.748;8.728;2024-01-27T12:02:39;230388.00;;;222.90
12234;BMP180;6179;51.748;8.728;2024-01-27T12:08:42;314757.00;;;222.90
12234;BMP180;6179;51.748;8.728;2024-01-27T12:14:51;230142.00;;;222.90
12234;BMP180;6179;51.748;8.728;2024-01-27T12:20:56;230388.00;;;222.90
12234;BMP180;6179;51.748;8.728;2024-01-27T12:27:00;230388.00;;;222.90
12234;BMP180;6179;51.748;8.728;2024-01-27T12:33:01;230388.00;;;222.90
12234;BMP180;6179;51.748;8.728;2024-01-27T12:39:10;230388.00;;;222.90
12234;BMP180;6179;51.748;8.728;2024-01-27T12:45:10;230388.00;;;222.90
12234;BMP180;6179;51.748;8.728;2024-01-27T12:51:11;230388.00;;;222.90
12234;BMP180;6179;51.748;8.728;2024-01-27T12:57:12;230388.00;;;222.90
12234;BMP180;6179;51.748;8.728;2024-01-27T13:03:13;230388.00;;;222.90
12234;BMP180;6179;51.748;8.728;2024-01-27T13:09:15;230388.00;;;222.90
12234;BMP180;6179;51.748;8.728;2024-01-27T13:15:15;230388.00;;;222.90
12234;BMP180;6179;51.748;8.728;2024-01-27T13:21:16;230388.00;;;222.90
12234;BMP180;6179;51.748;8.728;2024-01-27T13:27:17;230388.00;;;222.90
12234;BMP180;6179;51.748;8.728;2024-01-27T13:33:18;230388.00;;;222.90
12234;BMP180;6179;51.748;8.728;2024-01-27T13:39:19;230388.00;;;222.90
12234;BMP180;6179;51.748;8.728;2024-01-27T13:45:19;230388.00;;;222.90
12234;BMP180;6179;51.748;8.728;2024-01-27T13:51:20;230388.00;;;222.90
12234;BMP180;6179;51.748;8.728;2024-01-27T13:57:21;230388.00;;;222.90
12234;BMP180;6179;51.748;8.728;2024-01-27T14:03:22;230388.00;;;222.90
12234;BMP180;6179;51.748;8.728;2024-01-27T14:09:24;230388.00;;;222.90
12234;BMP180;6179;51.748;8.728;2024-01-27T14:15:24;230388.00;;;222.90
12234;BMP180;6179;51.748;8.728;2024-01-27T14:21:25;230388.00;;;222.90
12234;BMP180;6179;51.748;8.728;2024-01-27T14:27:28;230388.00;;;222.90
12234;BMP180;6179;51.748;8.728;2024-01-27T14:33:29;230388.00;;;222.90
12234;BMP180;6179;51.748;8.728;2024-01-27T14:39:30;230388.00;;;222.90
12234;BMP180;6179;51.748;8.728;2024-01-27T14:45:31;230388.00;;;222.90
12234;BMP180;6179;51.748;8.728;2024-01-27T14:51:32;230388.00;;;222.90
12234;BMP180;6179;51.748;8.728;2024-01-27T14:57:33;230388.00;;;222.90
12234;BMP180;6179;51.748;8.728;2024-01-27T15:03:34;108416.00;;;222.90
12234;BMP180;6179;51.748;8.728;2024-01-27T15:09:36;230388.00;;;222.90
12234;BMP180;6179;51.748;8.728;2024-01-27T15:15:39;108415.00;;;222.90
12234;BMP180;6179;51.748;8.728;2024-01-27T15:21:40;108418.00;;;222.90
12234;BMP180;6179;51.748;8.728;2024-01-27T15:27:41;108416.00;;;222.90
12234;BMP180;6179;51.748;8.728;2024-01-27T15:33:44;230388.00;;;222.90
12234;BMP180;6179;51.748;8.728;2024-01-27T15:39:45;230388.00;;;222.90
12234;BMP180;6179;51.748;8.728;2024-01-27T15:45:46;108419.00;;;222.90
12234;BMP180;6179;51.748;8.728;2024-01-27T15:51:48;108418.00;;;222.90
12234;BMP180;6179;51.748;8.728;2024-01-27T15:57:49;129084.00;;;222.90
12234;BMP180;6179;51.748;8.728;2024-01-27T16:03:50;230386.00;;;222.90
12234;BMP180;6179;51.748;8.728;2024-01-27T16:09:51;108413.00;;;222.90
12234;BMP180;6179;51.748;8.728;2024-01-27T16:15:56;108415.00;;;222.90
12234;BMP180;6179;51.748;8.728;2024-01-27T16:21:57;108413.00;;;222.90
12234;BMP180;6179;51.748;8.728;2024-01-27T16:27:57;108413.00;;;222.90
12234;BMP180;6179;51.748;8.728;2024-01-27T16:33:59;108412.00;;;222.90
12234;BMP180;6179;51.748;8.728;2024-01-27T16:39:59;108418.00;;;222.90
12234;BMP180;6179;51.748;8.728;2024-01-27T16:46:00;108418.00;;;222.90
12234;BMP180;6179;51.748;8.728;2024-01-27T16:52:02;108415.00;;;222.90
12234;BMP180;6179;51.748;8.728;2024-01-27T16:58:03;108413.00;;;222.90
12234;BMP180;6179;51.748;8.728;2024-01-27T17:04:04;230388.00;;;222.90
12234;BMP180;6179;51.748;8.728;2024-01-27T17:10:08;108414.00;;;222.90
12234;BMP180;6179;51.748;8.728;2024-01-27T17:16:09;108416.00;;;222.90
12234;BMP180;6179;51.748;8.728;2024-01-27T17:22:10;108410.00;;;222.90
12234;BMP180;6179;51.748;8.728;2024-01-27T17:28:11;108417.00;;;222.90
12234;BMP180;6179;51.748;8.728;2024-01-27T17:34:12;108414.00;;;222.90
12234;BMP180;6179;51.748;8.728;2024-01-27T17:40:15;108415.00;;;222.90
12234;BMP180;6179;51.748;8.728;2024-01-27T17:46:16;108417.00;;;222.90
12234;BMP180;6179;51.748;8.728;2024-01-27T17:52:18;108417.00;;;222.90
12234;BMP180;6179;51.748;8.728;2024-01-27T17:58:18;108408.00;;;222.90
12234;BMP180;6179;51.748;8.728;2024-01-27T18:04:20;108414.00;;;222.90
12234;BMP180;6179;51.748;8.728;2024-01-27T18:10:21;108412.00;;;222.90
12234;BMP180;6179;51.748;8.728;2024-01-27T18:16:21;108416.00;;;222.90
12234;BMP180;6179;51.748;8.728;2024-01-27T18:22:24;230388.00;;;222.90
12234;BMP180;6179;51.748;8.728;2024-01-27T18:28:25;230388.00;;;222.90
12234;BMP180;6179;51.748;8.728;2024-01-27T18:34:27;230388.00;;;222.90
12234;BMP180;6179;51.748;8.728;2024-01-27T18:40:28;230388.00;;;222.90
12234;BMP180;6179;51.748;8.728;2024-01-27T18:46:28;230388.00;;;222.90
12234;BMP180;6179;51.748;8.728;2024-01-27T18:52:29;230388.00;;;222.90
12234;BMP180;6179;51.748;8.728;2024-01-27T18:58:32;230386.00;;;222.90
12234;BMP180;6179;51.748;8.728;2024-01-27T19:04:33;108412.00;;;222.90
12234;BMP180;6179;51.748;8.728;2024-01-27T19:10:34;108421.00;;;222.90
12234;BMP180;6179;51.748;8.728;2024-01-27T19:16:35;108410.00;;;222.90
12234;BMP180;6179;51.748;8.728;2024-01-27T19:22:36;108412.00;;;222.90
12234;BMP180;6179;51.748;8.728;2024-01-27T19:28:36;108411.00;;;222.90
12234;BMP180;6179;51.748;8.728;2024-01-27T19:34:37;108413.00;;;222.90
12234;BMP180;6179;51.748;8.728;2024-01-27T19:40:38;108412.00;;;222.90
12234;BMP180;6179;51.748;8.728;2024-01-27T19:46:39;108417.00;;;222.90
12234;BMP180;6179;51.748;8.728;2024-01-27T19:52:40;108412.00;;;222.90
12234;BMP180;6179;51.748;8.728;2024-01-27T19:58:41;108414.00;;;222.90
12234;BMP180;6179;51.748;8.728;2024-01-27T20:04:42;108415.00;;;222.90
12234;BMP180;6179;51.748;8.728;2024-01-27T20:10:48;108415.00;;;222.90
12234;BMP180;6179;51.748;8.728;2024-01-27T20:16:49;108412.00;;;222.90
12234;BMP180;6179;51.748;8.728;2024-01-27T20:22:50;108411.00;;;222.90
12234;BMP180;6179;51.748;8.728;2024-01-27T20:28:53;108408.00;;;222.90
12234;BMP180;6179;51.748;8.728;2024-01-27T20:34:54;108404.00;;;222.90
12234;BMP180;6179;51.748;8.728;2024-01-27T20:40:55;108411.00;;;222.90
12234;BMP180;6179;51.748;8.728;2024-01-27T20:46:55;108411.00;;;222.90
12234;BMP180;6179;51.748;8.728;2024-01-27T20:52:57;108412.00;;;222.90
12234;BMP180;6179;51.748;8.728;2024-01-27T20:58:58;108415.00;;;222.90
12234;BMP180;6179;51.748;8.728;2024-01-27T21:04:59;108415.00;;;222.90
12234;BMP180;6179;51.748;8.728;2024-01-27T21:11:00;108415.00;;;222.90
12234;BMP180;6179;51.748;8.728;2024-01-27T21:17:03;108410.00;;;222.90
12234;BMP180;6179;51.748;8.728;2024-01-27T21:23:04;108416.00;;;222.90
12234;BMP180;6179;51.748;8.728;2024-01-27T21:29:09;108410.00;;;222.90
12234;BMP180;6179;51.748;8.728;2024-01-27T21:35:10;108412.00;;;222.90
12234;BMP180;6179;51.748;8.728;2024-01-27T21:41:11;108413.00;;;222.90
12234;BMP180;6179;51.748;8.728;2024-01-27T21:47:12;108416.00;;;222.90
12234;BMP180;6179;51.748;8.728;2024-01-27T21:53:12;108414.00;;;222.90
12234;BMP180;6179;51.748;8.728;2024-01-27T21:59:13;108409.00;;;222.90
12234;BMP180;6179;51.748;8.728;2024-01-27T22:05:15;108412.00;;;222.90
12234;BMP180;6179;51.748;8.728;2024-01-27T22:11:16;108411.00;;;222.90
12234;BMP180;6179;51.748;8.728;2024-01-27T22:17:17;108412.00;;;222.90
12234;BMP180;6179;51.748;8.728;2024-01-27T22:23:18;108410.00;;;222.90
12234;BMP180;6179;51.748;8.728;2024-01-27T22:29:19;108415.00;;;222.90
12234;BMP180;6179;51.748;8.728;2024-01-27T22:35:20;108414.00;;;222.90
12234;BMP180;6179;51.748;8.728;2024-01-27T22:41:21;108415.00;;;222.90
12234;BMP180;6179;51.748;8.728;2024-01-27T22:47:23;108413.00;;;222.90
12234;BMP180;6179;51.748;8.728;2024-01-27T22:53:24;108410.00;;;222.90
12234;BMP180;6179;51.748;8.728;2024-01-27T22:59:25;108417.00;;;222.90
12234;BMP180;6179;51.748;8.728;2024-01-27T23:05:25;108410.00;;;222.90
12234;BMP180;6179;51.748;8.728;2024-01-27T23:11:26;108411.00;;;222.90
12234;BMP180;6179;51.748;8.728;2024-01-27T23:17:28;108414.00;;;222.90
12234;BMP180;6179;51.748;8.728;2024-01-27T23:23:29;108411.00;;;222.90
12234;BMP180;6179;51.748;8.728;2024-01-27T23:29:30;108416.00;;;222.90
12234;BMP180;6179;51.748;8.728;2024-01-27T23:35:37;108411.00;;;222.90
12234;BMP180;6179;51.748;8.728;2024-01-27T23:41:38;108416.00;;;222.90
12234;BMP180;6179;51.748;8.728;2024-01-27T23:47:40;108413.00;;;222.90
12234;BMP180;6179;51.748;8.728;2024-01-27T23:53:41;108412.00;;;222.90
12234;BMP180;6179;51.748;8.728;2024-01-27T23:59:49;108412.00;;;222.90
